Manheim, West Virginia
Current Conditions -  °F | °C
As of 5:51 AM on Wednesday 22 Oct 2014 (Local Time) from KEKN Reporting Station
Light Rain Light Rain  
Wind Chill:   Ceiling: 600
Heat Index:   Visibility: 7mi
Dew Point:   Wind: 7mph
Humidity: 96%   Direction: 320°NW
Pressure: 30.05"   Gusts: NA
Location:  39.2234°N, 79.6204°W
Report Text: KEKN 220951Z AUTO 32006KT 7SM -RA OVC006 07/06 A3005 RMK AO2 RAE09B50 SLP185 P0000 T00670061 TSNO
Loading
Personal Weather Stations






























Interactive Weather Map
Tropical Storm Tracking
New forecast layout! Learn more

10-Day Weather Forecast

Advertisements
Track Severe Weather on mobile